Eisenhuttenstadt Airport


Codes: EDAE/
Name: Eisenhuttenstadt Airport
City: Eisenhuttenstadt
Country: Germany
Elevation: 144 ft.

Photos at Eisenhuttenstadt Airport


   Photos courtesy of SpottingLog. You can add your own sightings and photos by signing up for a free trial today.



No photos found.

Weather at Eisenhuttenstadt Airport


Time (UTC)DescriptionTempratureWindCloud coverageVisibilityPressureHumidity
16-Jun-2024 12:00Scattered Clouds24°C9 mph, SW31%10000m1011hPa39%
16-Jun-2024 15:00Broken Clouds24°C7 mph, SW70%10000m1010hPa39%
16-Jun-2024 18:00Broken Clouds20°C2 mph, W76%10000m1010hPa58%
16-Jun-2024 21:00Broken Clouds16°C2 mph, S73%10000m1012hPa66%
17-Jun-2024 00:00Broken Clouds16°C4 mph, W73%10000m1013hPa73%
17-Jun-2024 03:00Light Rain15°C4 mph, S100%10000m1013hPa86%
17-Jun-2024 06:00Overcast Clouds18°C7 mph, SW99%10000m1014hPa74%
17-Jun-2024 09:00Overcast Clouds22°C9 mph, SW100%10000m1014hPa54%
17-Jun-2024 12:00Light Rain24°C9 mph, SW100%10000m1014hPa45%
17-Jun-2024 15:00Overcast Clouds23°C7 mph, SW98%10000m1014hPa50%
17-Jun-2024 18:00Overcast Clouds21°C4 mph, SW99%10000m1014hPa66%
17-Jun-2024 21:00Light Rain16°C4 mph, SW100%10000m1015hPa89%
18-Jun-2024 00:00Overcast Clouds15°C4 mph, SW100%10000m1016hPa94%
18-Jun-2024 03:00Few Clouds14°C4 mph, SW20%10000m1016hPa97%
18-Jun-2024 06:00Broken Clouds19°C4 mph, SW60%10000m1016hPa77%
18-Jun-2024 09:00Light Rain23°C7 mph, SW100%10000m1016hPa60%
18-Jun-2024 12:00Light Rain25°C9 mph, SW100%10000m1015hPa48%
18-Jun-2024 15:00Overcast Clouds25°C4 mph, W99%10000m1014hPa50%
18-Jun-2024 18:00Overcast Clouds23°C2 mph, NE99%10000m1012hPa61%
18-Jun-2024 21:00Moderate Rain17°C4 mph, SW100%10000m1012hPa95%
19-Jun-2024 00:00Light Rain16°C9 mph, SW91%10000m1010hPa96%
19-Jun-2024 03:00Moderate Rain15°C16 mph, NW100%6501m1011hPa95%
19-Jun-2024 06:00Light Rain14°C9 mph, NW100%10000m1015hPa91%
19-Jun-2024 09:00Light Rain19°C13 mph, NW38%10000m1017hPa52%
19-Jun-2024 12:00Scattered Clouds18°C13 mph, NW50%10000m1018hPa54%
19-Jun-2024 15:00Scattered Clouds19°C16 mph, NW50%10000m1019hPa40%
19-Jun-2024 18:00Broken Clouds17°C11 mph, NW74%10000m1021hPa55%
19-Jun-2024 21:00Overcast Clouds12°C7 mph, NW100%10000m1022hPa72%
20-Jun-2024 00:00Broken Clouds10°C7 mph, W74%10000m1023hPa83%
20-Jun-2024 03:00Scattered Clouds9°C4 mph, W25%10000m1023hPa87%
20-Jun-2024 06:00Few Clouds14°C7 mph, W16%10000m1023hPa59%
20-Jun-2024 09:00Clear Sky20°C4 mph, SW0%10000m1022hPa34%
20-Jun-2024 12:00Clear Sky24°C7 mph, SW1%10000m1021hPa28%
20-Jun-2024 15:00Broken Clouds25°C2 mph, SW53%10000m1019hPa28%
20-Jun-2024 18:00Scattered Clouds22°C4 mph, SE45%10000m1018hPa46%
20-Jun-2024 21:00Clear Sky16°C4 mph, SE2%10000m1017hPa54%
21-Jun-2024 00:00Few Clouds16°C7 mph, SE21%10000m1016hPa68%
21-Jun-2024 03:00Overcast Clouds16°C7 mph, SE97%10000m1014hPa66%
21-Jun-2024 06:00Overcast Clouds19°C7 mph, SE98%10000m1013hPa61%
21-Jun-2024 09:00Broken Clouds29°C11 mph, S71%10000m1011hPa47%